メインページ
METAR-TAF:

METAR-TAF

空港 :

アンマン, ヨルダン

緯度: 31-59N, 経度: 035-59E, 海抜: 767m

現時点の気象観測

当レポートは57分前の05:00(UTC)に作成
東/北東の風 4kt
気温 25°C
湿度 36%
気圧 1014 hPa
視程: 4000m
煙霧

METAR: OJAM 200500Z 06004KT 4000 HZ NSC 25/09 Q1014 NOSIG

時間: 08:57 (05:57 UTC)

予報

当レポートは1時間7分前の04:50(UTC)に作成
予報は20日の 06時(UTC)から 21日の 12時(UTC)まで有効
変向風 2kt
視程: 5000m
煙霧
20日の 07時(UTC)から 20日の 09時(UTC)まで徐々に
西/北西の風 10kt

TAF: OJAM 200450Z 2006/2112 VRB02KT 5000 HZ NSC BECMG 2007/2009 29010KT

4,000以上の空港の気象観測と天気予報(METAR報とTAF報)

利用可能な観測所は地図上に黄色い丸と赤い丸で示す。

丸の上にカーソルを重ねると観測所名を参照できる。

次にクリックすると気象観測と天気予報を参照できる。

マップの切り替え:黒色「×」印の緑ボタンをクリックして拡大、「-」印の緑ボタンをクリックして縮小、緑色の三角印をクリックして隣りの地図に切り替え


METAR-TAF: